Terminal Aerodrome Forecast
Issued by NWS

Home | Current Version | Previous Version | Text Only | Print | Product List | Glossary On
Versions: 1 2 3 4 5 6 7 8 9 10 11 12 13 14 15 16 17 18 19
000
FTUS41 KPBZ 042331
TAFDUJ
TAF
KDUJ 042331Z 0500/0524 34008KT P6SM SKC
     FM050600 VRB03KT 3SM BR SKC
     FM050800 00000KT 2SM BR SKC
     FM051000 00000KT 3/4SM BR SKC
     FM051400 06005KT P6SM SCT250=

USA.gov is the U.S. government's official web portal to all federal, state and local government web resources and services.